Terminal Aerodrome Forecast
Issued by NWS

Home | Current Version | Previous Version | Text Only | Print | Product List | Glossary On
Versions: 1 2 3 4 5 6 7 8 9 10 11 12 13 14 15 16 17
120
FTUS43 KOAX 290210 AAA
TAFBFF
TAF AMD
KBFF 290210Z 2902/2924 10011KT P6SM -RA BKN010 OVC025
     FM290400 07008KT 3SM -RA OVC007
     FM291000 34006KT 3SM -RASN BKN004 OVC007
     FM291800 35011KT P6SM BKN025 OVC050=

USA.gov is the U.S. government's official web portal to all federal, state and local government web resources and services.